Jamaica, Iowa
Current Conditions -  °F | °C
As of 11:55 PM on Thursday 30 Oct 2014 (Local Time) from KPRO Reporting Station
Overcast Overcast  
Wind Chill: 33°   Ceiling: 3300
Heat Index: 42°   Visibility: 10mi
Dew Point: 33°   Wind: 20mph
Humidity: 71%   Direction: 340°NNW
Pressure: 30.3"   Gusts: 30mph
Location:  41.85°N, 94.31°W
Report Text: KPRO 310455Z AUTO 34017G26KT 10SM OVC033 06/01 A3030 RMK AO2 T00550006
Loading
Personal Weather Stations






























Interactive Weather Map
Tropical Storm Tracking
New forecast layout! Learn more

10-Day Weather Forecast

Advertisements
Track Severe Weather on mobile